sensor_id;sensor_type;location;lat;lon;timestamp;pressure;altitude;pressure_sealevel;temperature;humidity
62201;BME280;48197;42.732;27.192;2022-08-21T00:02:18;99040.97;;;20.56;100.00
62201;BME280;48197;42.732;27.192;2022-08-21T00:04:46;99046.22;;;20.48;100.00
62201;BME280;48197;42.732;27.192;2022-08-21T00:07:13;99036.69;;;20.40;100.00
62201;BME280;48197;42.732;27.192;2022-08-21T00:09:40;99037.88;;;20.33;100.00
62201;BME280;48197;42.732;27.192;2022-08-21T00:12:07;99034.97;;;20.28;100.00
62201;BME280;48197;42.732;27.192;2022-08-21T00:14:34;99029.78;;;20.41;100.00
62201;BME280;48197;42.732;27.192;2022-08-21T00:17:00;99035.34;;;20.56;100.00
62201;BME280;48197;42.732;27.192;2022-08-21T00:19:26;99029.34;;;20.63;100.00
62201;BME280;48197;42.732;27.192;2022-08-21T00:21:53;99029.41;;;20.69;100.00
62201;BME280;48197;42.732;27.192;2022-08-21T00:24:21;99024.66;;;20.75;100.00
62201;BME280;48197;42.732;27.192;2022-08-21T00:26:48;99020.16;;;20.63;100.00
62201;BME280;48197;42.732;27.192;2022-08-21T00:29:15;99018.84;;;20.43;100.00
62201;BME280;48197;42.732;27.192;2022-08-21T00:31:42;99016.28;;;20.25;100.00
62201;BME280;48197;42.732;27.192;2022-08-21T00:34:09;99005.38;;;20.12;100.00
62201;BME280;48197;42.732;27.192;2022-08-21T00:36:36;99009.59;;;20.02;100.00
62201;BME280;48197;42.732;27.192;2022-08-21T00:39:04;99009.50;;;19.96;100.00
62201;BME280;48197;42.732;27.192;2022-08-21T00:41:30;99012.19;;;19.90;100.00
62201;BME280;48197;42.732;27.192;2022-08-21T00:43:57;99013.38;;;19.84;100.00
62201;BME280;48197;42.732;27.192;2022-08-21T00:46:24;99013.78;;;19.76;100.00
62201;BME280;48197;42.732;27.192;2022-08-21T00:48:51;99021.63;;;19.72;100.00
62201;BME280;48197;42.732;27.192;2022-08-21T00:51:21;99015.72;;;19.70;100.00
62201;BME280;48197;42.732;27.192;2022-08-21T00:53:55;99010.78;;;19.65;100.00
62201;BME280;48197;42.732;27.192;2022-08-21T00:56:23;99013.00;;;19.61;100.00
62201;BME280;48197;42.732;27.192;2022-08-21T00:58:50;99020.03;;;19.56;100.00
62201;BME280;48197;42.732;27.192;2022-08-21T01:01:17;99015.41;;;19.53;100.00
62201;BME280;48197;42.732;27.192;2022-08-21T01:03:44;99012.78;;;19.50;100.00
62201;BME280;48197;42.732;27.192;2022-08-21T01:06:11;99016.09;;;19.48;100.00
62201;BME280;48197;42.732;27.192;2022-08-21T01:08:38;99015.97;;;19.43;100.00
62201;BME280;48197;42.732;27.192;2022-08-21T01:11:05;99016.16;;;19.39;100.00
62201;BME280;48197;42.732;27.192;2022-08-21T01:13:32;99012.78;;;19.35;100.00
62201;BME280;48197;42.732;27.192;2022-08-21T01:16:00;99011.63;;;19.27;100.00
62201;BME280;48197;42.732;27.192;2022-08-21T01:18:28;99013.84;;;19.23;100.00
62201;BME280;48197;42.732;27.192;2022-08-21T01:21:05;99008.91;;;19.17;100.00
62201;BME280;48197;42.732;27.192;2022-08-21T01:23:34;99011.13;;;19.13;100.00
62201;BME280;48197;42.732;27.192;2022-08-21T01:26:01;99018.44;;;19.11;100.00
62201;BME280;48197;42.732;27.192;2022-08-21T01:28:28;99013.53;;;19.06;100.00
62201;BME280;48197;42.732;27.192;2022-08-21T01:30:57;99018.53;;;19.02;100.00
62201;BME280;48197;42.732;27.192;2022-08-21T01:33:24;99012.34;;;18.97;100.00
62201;BME280;48197;42.732;27.192;2022-08-21T01:35:51;99003.97;;;19.12;100.00
62201;BME280;48197;42.732;27.192;2022-08-21T01:38:18;99004.19;;;19.24;100.00
62201;BME280;48197;42.732;27.192;2022-08-21T01:40:44;99007.56;;;19.43;100.00
62201;BME280;48197;42.732;27.192;2022-08-21T01:43:11;99005.28;;;19.71;100.00
62201;BME280;48197;42.732;27.192;2022-08-21T01:45:38;98995.94;;;19.94;100.00
62201;BME280;48197;42.732;27.192;2022-08-21T01:48:04;98992.91;;;20.13;100.00
62201;BME280;48197;42.732;27.192;2022-08-21T01:50:31;98992.31;;;20.24;100.00
62201;BME280;48197;42.732;27.192;2022-08-21T01:52:58;98992.41;;;20.29;100.00
62201;BME280;48197;42.732;27.192;2022-08-21T01:55:24;98986.28;;;20.31;100.00
62201;BME280;48197;42.732;27.192;2022-08-21T01:57:51;98990.34;;;20.30;100.00
62201;BME280;48197;42.732;27.192;2022-08-21T02:00:19;98991.88;;;20.31;100.00
62201;BME280;48197;42.732;27.192;2022-08-21T02:02:45;98984.94;;;20.26;100.00
62201;BME280;48197;42.732;27.192;2022-08-21T02:05:12;98977.13;;;20.15;100.00
62201;BME280;48197;42.732;27.192;2022-08-21T02:07:40;98977.28;;;20.06;100.00
62201;BME280;48197;42.732;27.192;2022-08-21T02:10:08;98978.22;;;20.03;100.00
62201;BME280;48197;42.732;27.192;2022-08-21T02:12:35;98980.13;;;19.91;100.00
62201;BME280;48197;42.732;27.192;2022-08-21T02:15:02;98974.81;;;19.78;100.00
62201;BME280;48197;42.732;27.192;2022-08-21T02:17:37;98977.53;;;19.73;100.00
62201;BME280;48197;42.732;27.192;2022-08-21T02:20:03;98976.16;;;19.68;100.00
62201;BME280;48197;42.732;27.192;2022-08-21T02:22:30;98978.84;;;19.63;100.00
62201;BME280;48197;42.732;27.192;2022-08-21T02:24:57;98984.38;;;19.57;100.00
62201;BME280;48197;42.732;27.192;2022-08-21T02:27:24;98978.00;;;19.56;100.00
62201;BME280;48197;42.732;27.192;2022-08-21T02:29:51;98975.19;;;19.56;100.00
62201;BME280;48197;42.732;27.192;2022-08-21T02:32:18;98975.97;;;19.57;100.00
62201;BME280;48197;42.732;27.192;2022-08-21T02:34:44;98974.13;;;19.54;100.00
62201;BME280;48197;42.732;27.192;2022-08-21T02:37:11;98965.53;;;19.57;100.00
62201;BME280;48197;42.732;27.192;2022-08-21T02:39:38;98966.31;;;19.73;100.00
62201;BME280;48197;42.732;27.192;2022-08-21T02:42:05;98963.34;;;19.97;100.00
62201;BME280;48197;42.732;27.192;2022-08-21T02:44:32;98973.38;;;20.18;100.00
62201;BME280;48197;42.732;27.192;2022-08-21T02:46:58;98971.28;;;20.34;100.00
62201;BME280;48197;42.732;27.192;2022-08-21T02:49:25;98966.66;;;20.51;100.00
62201;BME280;48197;42.732;27.192;2022-08-21T02:51:50;98970.91;;;20.62;100.00
62201;BME280;48197;42.732;27.192;2022-08-21T02:54:17;98964.63;;;20.72;100.00
62201;BME280;48197;42.732;27.192;2022-08-21T02:56:43;98959.34;;;20.80;100.00
62201;BME280;48197;42.732;27.192;2022-08-21T02:59:10;98963.50;;;20.85;100.00
62201;BME280;48197;42.732;27.192;2022-08-21T03:01:36;98963.00;;;20.86;100.00
62201;BME280;48197;42.732;27.192;2022-08-21T03:04:03;98971.69;;;20.88;100.00
62201;BME280;48197;42.732;27.192;2022-08-21T03:06:30;98963.00;;;20.86;100.00
62201;BME280;48197;42.732;27.192;2022-08-21T03:08:56;98971.13;;;20.84;100.00
62201;BME280;48197;42.732;27.192;2022-08-21T03:11:23;98968.06;;;20.82;100.00
62201;BME280;48197;42.732;27.192;2022-08-21T03:13:49;98967.00;;;20.79;100.00
62201;BME280;48197;42.732;27.192;2022-08-21T03:16:16;98969.25;;;20.75;100.00
62201;BME280;48197;42.732;27.192;2022-08-21T03:18:42;98968.97;;;20.73;100.00
62201;BME280;48197;42.732;27.192;2022-08-21T03:21:09;98966.41;;;20.70;100.00
62201;BME280;48197;42.732;27.192;2022-08-21T03:23:36;98966.13;;;20.68;100.00
62201;BME280;48197;42.732;27.192;2022-08-21T03:26:06;98964.78;;;20.63;100.00
62201;BME280;48197;42.732;27.192;2022-08-21T03:28:33;98966.03;;;20.62;100.00
62201;BME280;48197;42.732;27.192;2022-08-21T03:31:00;98976.78;;;20.64;99.62
62201;BME280;48197;42.732;27.192;2022-08-21T03:33:26;98980.66;;;20.66;98.94
62201;BME280;48197;42.732;27.192;2022-08-21T03:35:57;98977.91;;;20.72;98.04
62201;BME280;48197;42.732;27.192;2022-08-21T03:38:25;98975.91;;;20.78;97.17
62201;BME280;48197;42.732;27.192;2022-08-21T03:40:52;98973.91;;;20.78;96.76
62201;BME280;48197;42.732;27.192;2022-08-21T03:43:19;98971.31;;;20.75;96.79
62201;BME280;48197;42.732;27.192;2022-08-21T03:45:45;98978.16;;;20.74;96.69
62201;BME280;48197;42.732;27.192;2022-08-21T03:48:12;98976.34;;;20.71;96.62
62201;BME280;48197;42.732;27.192;2022-08-21T03:50:40;98968.41;;;20.69;96.86
62201;BME280;48197;42.732;27.192;2022-08-21T03:53:11;98975.59;;;20.70;96.55
62201;BME280;48197;42.732;27.192;2022-08-21T03:55:37;98966.94;;;20.74;96.25
62201;BME280;48197;42.732;27.192;2022-08-21T03:58:04;98967.78;;;20.80;94.97
62201;BME280;48197;42.732;27.192;2022-08-21T04:00:31;98974.78;;;20.90;93.93
62201;BME280;48197;42.732;27.192;2022-08-21T04:02:58;98975.91;;;20.98;93.39
62201;BME280;48197;42.732;27.192;2022-08-21T04:05:24;98966.00;;;21.03;92.95
62201;BME280;48197;42.732;27.192;2022-08-21T04:07:55;98978.06;;;21.09;92.60
62201;BME280;48197;42.732;27.192;2022-08-21T04:10:22;98983.00;;;21.20;91.54
62201;BME280;48197;42.732;27.192;2022-08-21T04:12:53;98984.94;;;21.34;90.44
62201;BME280;48197;42.732;27.192;2022-08-21T04:15:24;98985.50;;;21.38;90.29
62201;BME280;48197;42.732;27.192;2022-08-21T04:17:51;98987.13;;;21.45;89.70
62201;BME280;48197;42.732;27.192;2022-08-21T04:20:18;98988.44;;;21.50;89.48
62201;BME280;48197;42.732;27.192;2022-08-21T04:22:45;98991.25;;;21.50;89.29
62201;BME280;48197;42.732;27.192;2022-08-21T04:25:13;98997.63;;;21.50;89.06
62201;BME280;48197;42.732;27.192;2022-08-21T04:27:41;98993.84;;;21.53;89.00
62201;BME280;48197;42.732;27.192;2022-08-21T04:30:08;99000.44;;;21.50;89.84
62201;BME280;48197;42.732;27.192;2022-08-21T04:32:35;98994.28;;;21.46;90.53
62201;BME280;48197;42.732;27.192;2022-08-21T04:35:04;98999.88;;;21.46;91.31
62201;BME280;48197;42.732;27.192;2022-08-21T04:37:31;99007.91;;;21.53;91.29
62201;BME280;48197;42.732;27.192;2022-08-21T04:39:57;99004.41;;;21.64;91.09
62201;BME280;48197;42.732;27.192;2022-08-21T04:42:25;99003.47;;;21.73;91.22
62201;BME280;48197;42.732;27.192;2022-08-21T04:44:52;99011.94;;;21.78;91.31
62201;BME280;48197;42.732;27.192;2022-08-21T04:47:18;99006.84;;;21.82;91.83
62201;BME280;48197;42.732;27.192;2022-08-21T04:49:45;99006.69;;;21.92;91.77
62201;BME280;48197;42.732;27.192;2022-08-21T04:52:11;99000.31;;;21.97;91.71
62201;BME280;48197;42.732;27.192;2022-08-21T04:54:39;99006.00;;;22.02;91.75
62201;BME280;48197;42.732;27.192;2022-08-21T04:57:06;99004.53;;;22.18;91.61
62201;BME280;48197;42.732;27.192;2022-08-21T04:59:38;99011.16;;;22.47;90.35
62201;BME280;48197;42.732;27.192;2022-08-21T05:02:07;99004.88;;;22.75;88.33
62201;BME280;48197;42.732;27.192;2022-08-21T05:04:36;99008.53;;;22.98;86.99
62201;BME280;48197;42.732;27.192;2022-08-21T05:07:05;99007.59;;;23.18;85.70
62201;BME280;48197;42.732;27.192;2022-08-21T05:09:33;99002.00;;;23.35;84.09
62201;BME280;48197;42.732;27.192;2022-08-21T05:12:01;99000.97;;;23.55;82.70
62201;BME280;48197;42.732;27.192;2022-08-21T05:14:28;98998.72;;;23.76;81.45
62201;BME280;48197;42.732;27.192;2022-08-21T05:16:54;99003.31;;;23.96;80.46
62201;BME280;48197;42.732;27.192;2022-08-21T05:19:20;99007.13;;;24.15;79.17
62201;BME280;48197;42.732;27.192;2022-08-21T05:21:47;99013.03;;;24.29;78.13
62201;BME280;48197;42.732;27.192;2022-08-21T05:24:13;99016.56;;;24.40;77.47
62201;BME280;48197;42.732;27.192;2022-08-21T05:26:40;99024.53;;;24.53;76.44
62201;BME280;48197;42.732;27.192;2022-08-21T05:29:07;99024.22;;;24.68;76.08
62201;BME280;48197;42.732;27.192;2022-08-21T05:31:33;99023.91;;;24.89;75.35
62201;BME280;48197;42.732;27.192;2022-08-21T05:34:00;99025.88;;;25.05;74.44
62201;BME280;48197;42.732;27.192;2022-08-21T05:36:27;99025.03;;;25.21;73.25
62201;BME280;48197;42.732;27.192;2022-08-21T05:38:53;99023.59;;;25.45;71.68
62201;BME280;48197;42.732;27.192;2022-08-21T05:41:20;99013.16;;;25.64;69.79
62201;BME280;48197;42.732;27.192;2022-08-21T05:43:47;99014.34;;;25.80;68.15
62201;BME280;48197;42.732;27.192;2022-08-21T05:46:13;99013.75;;;25.93;66.64
62201;BME280;48197;42.732;27.192;2022-08-21T05:48:40;99010.56;;;26.02;65.19
62201;BME280;48197;42.732;27.192;2022-08-21T05:51:10;99018.91;;;26.19;63.43
62201;BME280;48197;42.732;27.192;2022-08-21T05:53:37;99012.00;;;26.39;63.00
62201;BME280;48197;42.732;27.192;2022-08-21T05:59:12;99002.91;;;26.71;60.02
62201;BME280;48197;42.732;27.192;2022-08-21T06:01:39;99000.63;;;27.07;59.74
62201;BME280;48197;42.732;27.192;2022-08-21T06:04:06;99005.28;;;27.62;58.76
62201;BME280;48197;42.732;27.192;2022-08-21T06:06:33;98998.53;;;28.10;56.11
62201;BME280;48197;42.732;27.192;2022-08-21T06:09:00;99002.94;;;28.38;55.19
62201;BME280;48197;42.732;27.192;2022-08-21T06:14:36;99007.53;;;28.68;52.24
62201;BME280;48197;42.732;27.192;2022-08-21T06:17:04;99008.75;;;28.59;53.20
62201;BME280;48197;42.732;27.192;2022-08-21T06:19:30;99014.16;;;28.44;52.54
62201;BME280;48197;42.732;27.192;2022-08-21T06:21:57;99017.13;;;28.38;53.23
62201;BME280;48197;42.732;27.192;2022-08-21T06:24:24;99016.84;;;28.55;53.11
62201;BME280;48197;42.732;27.192;2022-08-21T06:26:50;99015.47;;;28.96;51.63
62201;BME280;48197;42.732;27.192;2022-08-21T06:29:17;99014.56;;;29.15;50.34
62201;BME280;48197;42.732;27.192;2022-08-21T06:31:46;99010.13;;;29.40;50.08
62201;BME280;48197;42.732;27.192;2022-08-21T06:34:14;99002.88;;;29.95;48.58
62201;BME280;48197;42.732;27.192;2022-08-21T06:36:41;99002.25;;;30.38;47.40
62201;BME280;48197;42.732;27.192;2022-08-21T06:39:07;98998.44;;;31.08;46.15
62201;BME280;48197;42.732;27.192;2022-08-21T06:41:34;99004.34;;;31.78;43.87
62201;BME280;48197;42.732;27.192;2022-08-21T06:44:00;99005.28;;;32.26;42.90
62201;BME280;48197;42.732;27.192;2022-08-21T06:46:28;99006.75;;;32.73;42.00
62201;BME280;48197;42.732;27.192;2022-08-21T06:48:55;99008.09;;;33.21;41.26
62201;BME280;48197;42.732;27.192;2022-08-21T06:51:23;99009.16;;;33.33;40.04
62201;BME280;48197;42.732;27.192;2022-08-21T06:53:51;99008.22;;;32.82;40.06
62201;BME280;48197;42.732;27.192;2022-08-21T06:56:18;99006.00;;;32.50;40.99
62201;BME280;48197;42.732;27.192;2022-08-21T06:58:45;99006.41;;;32.54;41.04
62201;BME280;48197;42.732;27.192;2022-08-21T07:01:12;98999.50;;;32.49;40.75
62201;BME280;48197;42.732;27.192;2022-08-21T07:03:39;99002.78;;;32.38;41.08
62201;BME280;48197;42.732;27.192;2022-08-21T07:06:07;98986.94;;;32.52;40.96
62201;BME280;48197;42.732;27.192;2022-08-21T07:08:34;98988.28;;;33.07;39.48
62201;BME280;48197;42.732;27.192;2022-08-21T07:11:02;98995.00;;;33.35;39.02
62201;BME280;48197;42.732;27.192;2022-08-21T07:13:29;98988.22;;;34.06;38.62
62201;BME280;48197;42.732;27.192;2022-08-21T07:15:56;98982.03;;;34.69;37.56
62201;BME280;48197;42.732;27.192;2022-08-21T07:18:22;98976.28;;;35.31;36.21
62201;BME280;48197;42.732;27.192;2022-08-21T07:20:49;98981.47;;;34.71;36.66
62201;BME280;48197;42.732;27.192;2022-08-21T07:23:28;98985.78;;;33.11;39.55
62201;BME280;48197;42.732;27.192;2022-08-21T07:25:54;98981.31;;;32.85;39.43
62201;BME280;48197;42.732;27.192;2022-08-21T07:28:21;98980.91;;;32.02;40.96
62201;BME280;48197;42.732;27.192;2022-08-21T07:30:50;98982.25;;;32.09;40.83
62201;BME280;48197;42.732;27.192;2022-08-21T07:33:18;98972.56;;;30.99;42.88
62201;BME280;48197;42.732;27.192;2022-08-21T07:35:44;98980.81;;;30.16;44.51
62201;BME280;48197;42.732;27.192;2022-08-21T07:38:11;98969.47;;;30.24;45.58
62201;BME280;48197;42.732;27.192;2022-08-21T07:40:37;98981.28;;;32.29;42.03
62201;BME280;48197;42.732;27.192;2022-08-21T07:43:04;98971.91;;;32.37;41.24
62201;BME280;48197;42.732;27.192;2022-08-21T07:45:31;98968.03;;;31.19;43.06
62201;BME280;48197;42.732;27.192;2022-08-21T07:47:58;98969.28;;;30.22;45.27
62201;BME280;48197;42.732;27.192;2022-08-21T07:50:25;98968.38;;;29.77;46.26
62201;BME280;48197;42.732;27.192;2022-08-21T07:55:57;98958.78;;;31.64;44.39
62201;BME280;48197;42.732;27.192;2022-08-21T07:58:23;98957.38;;;32.65;40.80
62201;BME280;48197;42.732;27.192;2022-08-21T08:00:50;98958.78;;;33.30;39.77
62201;BME280;48197;42.732;27.192;2022-08-21T08:03:16;98945.50;;;32.69;39.46
62201;BME280;48197;42.732;27.192;2022-08-21T08:05:44;98951.72;;;31.34;42.49
62201;BME280;48197;42.732;27.192;2022-08-21T08:08:11;98956.84;;;30.40;44.90
62201;BME280;48197;42.732;27.192;2022-08-21T08:10:38;98956.28;;;29.84;45.63
62201;BME280;48197;42.732;27.192;2022-08-21T08:13:05;98959.41;;;29.73;46.82
62201;BME280;48197;42.732;27.192;2022-08-21T08:15:32;98961.13;;;29.97;46.25
62201;BME280;48197;42.732;27.192;2022-08-21T08:17:59;98953.47;;;30.21;46.09
62201;BME280;48197;42.732;27.192;2022-08-21T08:20:27;98950.16;;;30.30;45.76
62201;BME280;48197;42.732;27.192;2022-08-21T08:22:55;98943.66;;;31.10;44.17
62201;BME280;48197;42.732;27.192;2022-08-21T08:25:25;98941.63;;;32.26;42.04
62201;BME280;48197;42.732;27.192;2022-08-21T08:27:52;98941.16;;;32.68;40.25
62201;BME280;48197;42.732;27.192;2022-08-21T08:30:19;98946.63;;;31.87;41.85
62201;BME280;48197;42.732;27.192;2022-08-21T08:32:46;98933.66;;;32.09;42.16
62201;BME280;48197;42.732;27.192;2022-08-21T08:35:13;98942.69;;;32.61;40.65
62201;BME280;48197;42.732;27.192;2022-08-21T08:37:41;98939.09;;;32.45;41.02
62201;BME280;48197;42.732;27.192;2022-08-21T08:40:13;98936.13;;;33.49;38.90
62201;BME280;48197;42.732;27.192;2022-08-21T08:42:41;98932.25;;;34.74;37.50
62201;BME280;48197;42.732;27.192;2022-08-21T08:45:12;98931.31;;;34.37;36.79
62201;BME280;48197;42.732;27.192;2022-08-21T08:47:40;98927.41;;;33.40;39.05
62201;BME280;48197;42.732;27.192;2022-08-21T08:50:10;98928.69;;;33.46;38.71
62201;BME280;48197;42.732;27.192;2022-08-21T08:52:41;98926.38;;;34.38;37.67
62201;BME280;48197;42.732;27.192;2022-08-21T08:55:12;98920.72;;;35.46;35.22
62201;BME280;48197;42.732;27.192;2022-08-21T08:57:42;98905.56;;;35.73;35.10
62201;BME280;48197;42.732;27.192;2022-08-21T09:00:11;98910.88;;;35.12;34.67
62201;BME280;48197;42.732;27.192;2022-08-21T09:02:41;98909.06;;;33.68;36.64
62201;BME280;48197;42.732;27.192;2022-08-21T09:05:09;98909.94;;;33.53;37.72
62201;BME280;48197;42.732;27.192;2022-08-21T09:07:45;98899.47;;;33.48;37.98
62201;BME280;48197;42.732;27.192;2022-08-21T09:10:17;98907.25;;;32.49;39.42
62201;BME280;48197;42.732;27.192;2022-08-21T09:12:56;98889.69;;;31.66;40.60
62201;BME280;48197;42.732;27.192;2022-08-21T09:15:43;98895.00;;;31.16;41.87
62201;BME280;48197;42.732;27.192;2022-08-21T09:26:04;98876.31;;;33.28;38.23
62201;BME280;48197;42.732;27.192;2022-08-21T09:28:34;98881.75;;;32.84;39.08
62201;BME280;48197;42.732;27.192;2022-08-21T09:31:23;98869.78;;;32.29;40.40
62201;BME280;48197;42.732;27.192;2022-08-21T10:04:57;98834.84;;;35.04;35.51
62201;BME280;48197;42.732;27.192;2022-08-21T10:07:27;98839.94;;;35.32;34.40
62201;BME280;48197;42.732;27.192;2022-08-21T10:10:00;98843.09;;;35.64;34.65
62201;BME280;48197;42.732;27.192;2022-08-21T10:12:35;98845.47;;;35.57;35.39
62201;BME280;48197;42.732;27.192;2022-08-21T10:15:39;98840.03;;;35.62;34.40
62201;BME280;48197;42.732;27.192;2022-08-21T10:26:11;98845.41;;;36.14;34.99
62201;BME280;48197;42.732;27.192;2022-08-21T10:31:27;98844.53;;;34.36;37.31
62201;BME280;48197;42.732;27.192;2022-08-21T10:36:37;98838.75;;;32.99;40.36
62201;BME280;48197;42.732;27.192;2022-08-21T10:39:08;98842.19;;;32.98;40.13
62201;BME280;48197;42.732;27.192;2022-08-21T10:47:05;98848.03;;;33.58;40.70
62201;BME280;48197;42.732;27.192;2022-08-21T10:55:36;98844.78;;;31.43;46.37
62201;BME280;48197;42.732;27.192;2022-08-21T10:57:54;98843.75;;;30.87;48.14
62201;BME280;48197;42.732;27.192;2022-08-21T11:00:26;98845.97;;;30.65;48.93
62201;BME280;48197;42.732;27.192;2022-08-21T11:03:04;98843.16;;;30.81;49.76
62201;BME280;48197;42.732;27.192;2022-08-21T11:05:33;98834.81;;;31.90;48.50
62201;BME280;48197;42.732;27.192;2022-08-21T11:08:12;98841.81;;;32.20;46.94
62201;BME280;48197;42.732;27.192;2022-08-21T11:10:46;98844.41;;;32.33;47.02
62201;BME280;48197;42.732;27.192;2022-08-21T11:16:15;98837.94;;;32.33;46.24
62201;BME280;48197;42.732;27.192;2022-08-21T11:18:49;98842.50;;;32.28;46.38
62201;BME280;48197;42.732;27.192;2022-08-21T11:26:52;98810.50;;;31.36;48.93
62201;BME280;48197;42.732;27.192;2022-08-21T11:29:23;98831.63;;;31.32;49.08
62201;BME280;48197;42.732;27.192;2022-08-21T11:43:07;98829.94;;;30.10;52.47
62201;BME280;48197;42.732;27.192;2022-08-21T11:48:37;98817.78;;;29.45;54.05
62201;BME280;48197;42.732;27.192;2022-08-21T11:51:15;98812.13;;;29.24;55.02
62201;BME280;48197;42.732;27.192;2022-08-21T11:56:45;98808.53;;;28.89;56.12
62201;BME280;48197;42.732;27.192;2022-08-21T11:59:17;98804.09;;;28.80;56.07
62201;BME280;48197;42.732;27.192;2022-08-21T12:01:47;98810.25;;;28.50;57.29
62201;BME280;48197;42.732;27.192;2022-08-21T12:06:44;98809.13;;;27.20;62.23
62201;BME280;48197;42.732;27.192;2022-08-21T12:09:27;98799.28;;;26.75;65.63
62201;BME280;48197;42.732;27.192;2022-08-21T12:14:47;98802.66;;;25.98;69.88
62201;BME280;48197;42.732;27.192;2022-08-21T12:17:22;98805.22;;;26.01;70.62
62201;BME280;48197;42.732;27.192;2022-08-21T12:20:01;98798.53;;;26.18;71.28
62201;BME280;48197;42.732;27.192;2022-08-21T12:22:38;98780.78;;;26.55;70.28
62201;BME280;48197;42.732;27.192;2022-08-21T12:25:10;98788.13;;;27.28;66.97
62201;BME280;48197;42.732;27.192;2022-08-21T12:27:47;98788.59;;;28.47;62.51
62201;BME280;48197;42.732;27.192;2022-08-21T12:33:01;98776.28;;;32.47;49.63
62201;BME280;48197;42.732;27.192;2022-08-21T12:35:32;98778.28;;;32.95;47.41
62201;BME280;48197;42.732;27.192;2022-08-21T12:38:47;98779.63;;;32.94;44.84
62201;BME280;48197;42.732;27.192;2022-08-21T12:41:26;98775.59;;;32.72;45.07
62201;BME280;48197;42.732;27.192;2022-08-21T12:44:15;98770.88;;;32.67;44.69
62201;BME280;48197;42.732;27.192;2022-08-21T12:46:51;98762.13;;;33.75;42.01
62201;BME280;48197;42.732;27.192;2022-08-21T12:49:35;98769.38;;;33.76;40.64
62201;BME280;48197;42.732;27.192;2022-08-21T12:52:05;98768.78;;;33.60;40.60
62201;BME280;48197;42.732;27.192;2022-08-21T12:54:40;98776.81;;;33.36;40.28
62201;BME280;48197;42.732;27.192;2022-08-21T12:57:22;98776.84;;;33.11;40.85
62201;BME280;48197;42.732;27.192;2022-08-21T13:02:50;98761.00;;;34.77;38.21
62201;BME280;48197;42.732;27.192;2022-08-21T13:05:39;98751.66;;;35.33;36.83
62201;BME280;48197;42.732;27.192;2022-08-21T13:08:07;98750.97;;;35.05;37.05
62201;BME280;48197;42.732;27.192;2022-08-21T13:10:40;98753.34;;;34.08;38.15
62201;BME280;48197;42.732;27.192;2022-08-21T13:13:12;98760.72;;;33.41;39.53
62201;BME280;48197;42.732;27.192;2022-08-21T13:15:47;98757.00;;;32.88;40.66
62201;BME280;48197;42.732;27.192;2022-08-21T13:18:29;98762.88;;;32.25;41.81
62201;BME280;48197;42.732;27.192;2022-08-21T13:21:06;98754.34;;;31.61;43.17
62201;BME280;48197;42.732;27.192;2022-08-21T13:26:36;98756.25;;;30.74;45.37
62201;BME280;48197;42.732;27.192;2022-08-21T13:29:07;98760.03;;;30.61;46.08
62201;BME280;48197;42.732;27.192;2022-08-21T13:31:47;98755.66;;;30.52;46.21
62201;BME280;48197;42.732;27.192;2022-08-21T13:34:15;98756.00;;;30.41;46.61
62201;BME280;48197;42.732;27.192;2022-08-21T13:36:43;98749.38;;;30.39;47.33
62201;BME280;48197;42.732;27.192;2022-08-21T13:39:50;98747.84;;;30.45;46.92
62201;BME280;48197;42.732;27.192;2022-08-21T13:42:18;98747.25;;;30.31;46.55
62201;BME280;48197;42.732;27.192;2022-08-21T13:45:30;98737.19;;;30.38;45.86
62201;BME280;48197;42.732;27.192;2022-08-21T14:00:18;98745.59;;;32.81;40.75
62201;BME280;48197;42.732;27.192;2022-08-21T14:02:51;98741.44;;;32.99;40.16
62201;BME280;48197;42.732;27.192;2022-08-21T14:05:27;98742.94;;;33.00;39.69
62201;BME280;48197;42.732;27.192;2022-08-21T14:07:59;98740.84;;;33.01;40.53
62201;BME280;48197;42.732;27.192;2022-08-21T14:10:27;98731.22;;;33.13;40.11
62201;BME280;48197;42.732;27.192;2022-08-21T14:12:59;98734.28;;;33.33;40.20
62201;BME280;48197;42.732;27.192;2022-08-21T14:15:29;98736.13;;;33.21;40.10
62201;BME280;48197;42.732;27.192;2022-08-21T14:18:17;98749.72;;;32.87;40.76
62201;BME280;48197;42.732;27.192;2022-08-21T14:20:44;98751.88;;;32.79;41.11
62201;BME280;48197;42.732;27.192;2022-08-21T14:23:11;98752.38;;;32.93;40.78
62201;BME280;48197;42.732;27.192;2022-08-21T14:38:00;98768.94;;;30.42;44.34
62201;BME280;48197;42.732;27.192;2022-08-21T14:43:19;98766.78;;;29.55;46.73
62201;BME280;48197;42.732;27.192;2022-08-21T14:45:49;98770.25;;;29.32;47.81
62201;BME280;48197;42.732;27.192;2022-08-21T14:48:19;98760.47;;;28.99;49.50
62201;BME280;48197;42.732;27.192;2022-08-21T14:50:51;98765.81;;;28.60;52.17
62201;BME280;48197;42.732;27.192;2022-08-21T14:53:19;98768.09;;;28.27;54.18
62201;BME280;48197;42.732;27.192;2022-08-21T14:55:46;98776.56;;;28.06;55.65
62201;BME280;48197;42.732;27.192;2022-08-21T14:58:40;98773.28;;;27.76;56.39
62201;BME280;48197;42.732;27.192;2022-08-21T15:01:08;98771.88;;;27.56;57.18
62201;BME280;48197;42.732;27.192;2022-08-21T15:06:26;98768.13;;;27.21;58.99
62201;BME280;48197;42.732;27.192;2022-08-21T15:08:53;98766.03;;;27.08;59.68
62201;BME280;48197;42.732;27.192;2022-08-21T15:11:20;98773.19;;;26.96;60.31
62201;BME280;48197;42.732;27.192;2022-08-21T15:13:55;98776.47;;;26.86;60.99
62201;BME280;48197;42.732;27.192;2022-08-21T15:16:22;98781.34;;;26.86;61.49
62201;BME280;48197;42.732;27.192;2022-08-21T15:18:49;98786.25;;;26.85;61.98
62201;BME280;48197;42.732;27.192;2022-08-21T15:21:15;98780.81;;;26.87;62.35
62201;BME280;48197;42.732;27.192;2022-08-21T15:23:42;98778.50;;;26.86;62.23